Time;durP1;ratioP1;P1;durP2;ratioP2;P2;SDS_P1;SDS_P2;PMS_P1;PMS_P2;Temp;Humidity;BMP_temperature;BMP_pressure;BME280_temperature;BME280_humidity;BME280_pressure;Samples;Min_cycle;Max_cycle;Signal;HPM_P1;HPM_P2
2023/05/20 00:01:06;;;;;;;3.75;1.20;;;17.30;50.70;;;;;;2261339;56;20916;-68
2023/05/20 00:03:33;;;;;;;3.65;1.48;;;17.30;50.70;;;;;;2261254;56;20932;-73
2023/05/20 00:06:00;;;;;;;3.42;1.45;;;17.30;50.80;;;;;;2261426;56;20980;-70
2023/05/20 00:08:26;;;;;;;2.75;1.30;;;17.30;50.80;;;;;;2489462;55;20976;-71
2023/05/20 00:10:53;;;;;;;2.03;1.02;;;17.30;50.80;;;;;;2490475;55;21768;-70
2023/05/20 00:13:19;;;;;;;2.78;1.33;;;17.30;50.80;;;;;;2261003;56;20928;-71
2023/05/20 00:15:45;;;;;;;3.50;1.40;;;17.20;50.80;;;;;;2490309;55;20893;-70
2023/05/20 00:18:12;;;;;;;2.60;1.12;;;17.30;51.00;;;;;;2257414;56;20940;-70
2023/05/20 00:20:39;;;;;;;2.67;1.02;;;17.20;50.90;;;;;;2261172;56;20941;-75
2023/05/20 00:23:05;;;;;;;3.90;1.60;;;17.20;51.00;;;;;;2489379;55;20940;-71
2023/05/20 00:25:32;;;;;;;3.87;1.58;;;17.20;51.10;;;;;;2487705;55;22065;-70
2023/05/20 00:27:58;;;;;;;3.67;1.90;;;17.30;51.30;;;;;;2489542;55;21015;-72
2023/05/20 00:30:24;;;;;;;4.03;1.60;;;17.20;51.30;;;;;;2260507;56;20972;-70
2023/05/20 00:32:50;;;;;;;3.28;1.50;;;17.20;51.30;;;;;;2489695;55;20944;-70
2023/05/20 00:35:19;;;;;;;3.15;1.30;;;17.20;51.30;;;;;;2487878;55;20939;-71
2023/05/20 00:37:46;;;;;;;1.98;0.90;;;17.30;51.40;;;;;;2261352;56;21556;-72
2023/05/20 00:40:13;;;;;;;2.90;1.20;;;17.30;51.40;;;;;;2488545;55;20944;-71
2023/05/20 00:42:41;;;;;;;2.83;1.23;;;17.20;51.30;;;;;;2262610;56;21916;-71
2023/05/20 00:45:08;;;;;;;3.28;1.15;;;17.20;51.30;;;;;;2489587;55;20948;-72
2023/05/20 00:47:35;;;;;;;4.37;1.33;;;17.20;51.40;;;;;;2488783;55;20952;-73
2023/05/20 00:50:03;;;;;;;3.30;1.40;;;17.30;51.50;;;;;;2261384;56;20997;-71
2023/05/20 00:52:30;;;;;;;4.05;1.42;;;17.20;51.40;;;;;;2260218;56;20938;-73
2023/05/20 00:54:57;;;;;;;3.00;1.27;;;17.20;51.50;;;;;;2260991;56;21424;-70
2023/05/20 00:57:23;;;;;;;2.95;1.10;;;17.30;51.60;;;;;;2260170;56;21417;-75
2023/05/20 00:59:50;;;;;;;2.80;1.10;;;17.20;51.60;;;;;;2261144;56;21401;-71
2023/05/20 01:02:19;;;;;;;2.50;1.12;;;17.20;51.50;;;;;;2488674;55;21778;-71
2023/05/20 01:04:46;;;;;;;4.00;1.30;;;17.20;51.50;;;;;;2489422;55;20949;-71
2023/05/20 01:07:14;;;;;;;3.10;1.02;;;17.20;51.50;;;;;;2260499;56;21008;-69
2023/05/20 01:09:40;;;;;;;2.95;1.52;;;17.20;51.50;;;;;;2259596;56;21048;-71
2023/05/20 01:12:12;;;;;;;2.85;1.42;;;17.20;51.60;;;;;;2260675;56;20950;-70
2023/05/20 01:14:46;;;;;;;3.45;1.50;;;17.20;51.80;;;;;;2489435;55;21056;-74
2023/05/20 01:17:16;;;;;;;;;;;17.20;51.80;;;;;;2265552;56;21038;-70
2023/05/20 01:19:49;;;;;;;2.95;1.05;;;17.20;52.00;;;;;;2486122;55;20108;-71
2023/05/20 01:22:15;;;;;;;3.35;1.40;;;17.20;51.60;;;;;;2489729;55;21442;-70
2023/05/20 01:24:44;;;;;;;3.53;1.20;;;17.20;51.80;;;;;;2260701;56;21020;-72
2023/05/20 01:27:12;;;;;;;3.10;0.98;;;17.20;52.40;;;;;;2489247;55;21514;-70
2023/05/20 01:29:39;;;;;;;3.45;1.20;;;17.20;51.90;;;;;;2489780;55;20942;-67
2023/05/20 01:32:06;;;;;;;2.97;1.20;;;17.20;51.90;;;;;;2261102;56;20996;-70
2023/05/20 01:34:34;;;;;;;3.08;1.30;;;17.10;52.40;;;;;;2259855;56;20952;-68
2023/05/20 01:37:02;;;;;;;3.53;1.45;;;17.10;51.90;;;;;;2262854;55;20998;-68
2023/05/20 01:39:29;;;;;;;3.40;1.70;;;17.10;51.90;;;;;;2484514;55;20948;-71
2023/05/20 01:41:56;;;;;;;3.75;1.60;;;17.10;52.10;;;;;;2260810;56;21612;-71
2023/05/20 01:44:22;;;;;;;4.45;1.40;;;17.20;52.20;;;;;;2484330;55;20958;-68
2023/05/20 01:46:50;;;;;;;3.50;1.30;;;17.20;52.20;;;;;;2488795;55;20952;-72
2023/05/20 01:49:16;;;;;;;3.50;1.25;;;17.20;52.20;;;;;;2259906;56;21000;-67
2023/05/20 01:51:45;;;;;;;2.95;1.10;;;17.10;52.10;;;;;;2488448;55;21052;-71
2023/05/20 01:54:12;;;;;;;2.90;1.20;;;17.10;52.00;;;;;;2260930;56;20925;-70
2023/05/20 01:56:38;;;;;;;3.40;1.58;;;17.10;52.00;;;;;;2260716;56;20928;-71
2023/05/20 01:59:04;;;;;;;2.47;1.08;;;17.20;52.10;;;;;;2489968;55;21088;-71
2023/05/20 02:01:32;;;;;;;3.47;1.60;;;17.10;52.10;;;;;;2488849;55;21821;-71
2023/05/20 02:03:59;;;;;;;2.58;1.20;;;17.10;52.20;;;;;;2260789;56;21906;-71
2023/05/20 02:06:25;;;;;;;3.15;1.40;;;17.10;52.30;;;;;;2260742;56;21080;-75
2023/05/20 02:08:52;;;;;;;3.08;1.35;;;17.10;52.30;;;;;;2489958;55;21004;-70
2023/05/20 02:11:18;;;;;;;3.92;1.50;;;17.10;52.40;;;;;;2489015;55;20985;-70
2023/05/20 02:13:44;;;;;;;3.53;1.50;;;17.10;52.50;;;;;;2259631;56;20970;-71
2023/05/20 02:16:11;;;;;;;2.90;1.30;;;17.10;52.50;;;;;;2489591;55;20952;-71
2023/05/20 02:18:39;;;;;;;2.97;1.50;;;17.10;52.50;;;;;;2261132;56;21067;-70
2023/05/20 02:21:05;;;;;;;2.97;1.55;;;17.10;52.60;;;;;;2490184;55;20928;-70
2023/05/20 02:23:33;;;;;;;2.55;1.37;;;17.10;53.10;;;;;;2485772;55;21473;-71
2023/05/20 02:25:59;;;;;;;3.62;1.73;;;17.10;52.50;;;;;;2261068;56;20964;-71
2023/05/20 02:28:26;;;;;;;3.55;1.50;;;17.10;52.50;;;;;;2488277;55;21015;-75
2023/05/20 02:30:52;;;;;;;3.45;1.37;;;17.10;52.50;;;;;;2257867;56;21003;-71
2023/05/20 02:33:19;;;;;;;3.25;1.50;;;17.10;52.50;;;;;;2262892;56;21389;-70
2023/05/20 02:35:45;;;;;;;3.70;1.42;;;17.10;52.50;;;;;;2485585;55;21439;-71
2023/05/20 02:38:12;;;;;;;4.00;1.42;;;17.10;52.50;;;;;;2489417;55;21084;-71
2023/05/20 02:40:38;;;;;;;3.40;1.40;;;17.10;52.60;;;;;;2489645;55;20964;-73
2023/05/20 02:43:05;;;;;;;2.70;1.30;;;17.10;52.70;;;;;;2261770;56;20956;-71
2023/05/20 02:45:32;;;;;;;5.70;1.83;;;17.10;52.70;;;;;;2489449;55;21469;-71
2023/05/20 02:47:58;;;;;;;3.78;1.70;;;17.10;52.70;;;;;;2490495;55;20933;-70
2023/05/20 02:50:25;;;;;;;4.87;1.60;;;17.10;52.80;;;;;;2489539;55;21824;-70
2023/05/20 02:52:51;;;;;;;3.15;1.40;;;17.10;52.80;;;;;;2261294;56;20945;-73
2023/05/20 02:55:18;;;;;;;3.30;1.67;;;17.10;52.90;;;;;;2261354;56;20979;-74
2023/05/20 02:57:48;;;;;;;4.53;1.55;;;17.10;53.00;;;;;;2490196;55;20913;-71
2023/05/20 03:00:15;;;;;;;3.53;1.52;;;17.10;53.10;;;;;;2489316;55;20933;-73
2023/05/20 03:02:44;;;;;;;3.35;1.23;;;17.10;53.00;;;;;;2261091;56;20928;-72
2023/05/20 03:05:11;;;;;;;2.75;1.17;;;17.10;52.90;;;;;;2261442;56;20997;-70
2023/05/20 03:07:37;;;;;;;5.22;1.55;;;17.10;52.90;;;;;;2489444;55;21604;-72
2023/05/20 03:10:05;;;;;;;2.50;1.27;;;17.10;52.90;;;;;;2257710;55;21774;-73
2023/05/20 03:12:32;;;;;;;2.72;1.30;;;17.10;53.00;;;;;;2489738;55;22173;-70
2023/05/20 03:14:59;;;;;;;2.78;1.55;;;17.10;52.90;;;;;;2490255;55;20965;-73
2023/05/20 03:17:26;;;;;;;4.45;1.42;;;17.10;53.00;;;;;;2489976;55;21000;-71
2023/05/20 03:19:52;;;;;;;3.10;1.20;;;17.10;53.00;;;;;;2490118;55;21000;-70
2023/05/20 03:22:18;;;;;;;2.90;1.40;;;17.10;53.00;;;;;;2488535;55;20960;-72
2023/05/20 03:24:45;;;;;;;2.83;1.40;;;17.00;53.50;;;;;;2484167;55;20920;-69
2023/05/20 03:27:11;;;;;;;6.05;2.25;;;17.10;53.00;;;;;;2261420;56;21288;-71
2023/05/20 03:29:39;;;;;;;2.25;1.23;;;17.00;53.00;;;;;;2261708;56;20968;-71
2023/05/20 03:32:08;;;;;;;2.97;1.40;;;17.00;53.00;;;;;;2490131;55;21480;-70
2023/05/20 03:34:35;;;;;;;3.83;1.40;;;17.00;53.00;;;;;;2484451;55;20946;-70
2023/05/20 03:37:02;;;;;;;2.90;1.30;;;17.00;53.00;;;;;;2261587;56;21902;-70
2023/05/20 03:39:29;;;;;;;3.65;1.52;;;17.00;53.00;;;;;;2489657;55;20921;-73
2023/05/20 03:41:55;;;;;;;2.92;1.45;;;17.00;53.10;;;;;;2260980;56;20961;-71
2023/05/20 03:44:22;;;;;;;3.87;1.90;;;17.00;53.10;;;;;;2260701;56;20981;-72
2023/05/20 03:46:48;;;;;;;3.47;1.50;;;17.00;53.10;;;;;;2490311;55;21509;-71
2023/05/20 03:49:14;;;;;;;4.35;1.60;;;17.00;53.10;;;;;;2260190;56;20933;-73
2023/05/20 03:51:41;;;;;;;2.87;1.40;;;17.00;53.10;;;;;;2489319;55;21478;-70
2023/05/20 03:54:07;;;;;;;3.70;1.70;;;17.00;53.40;;;;;;2260599;56;20990;-72
2023/05/20 03:56:33;;;;;;;3.50;1.60;;;17.00;53.20;;;;;;2489080;55;20984;-70
2023/05/20 03:59:00;;;;;;;3.17;1.58;;;17.00;53.20;;;;;;2489723;55;21915;-71
2023/05/20 04:01:27;;;;;;;4.18;1.58;;;16.90;53.20;;;;;;2488865;55;21044;-73
2023/05/20 04:03:54;;;;;;;3.72;1.67;;;16.90;53.30;;;;;;2261535;56;20952;-71
2023/05/20 04:06:21;;;;;;;2.72;1.23;;;16.90;53.20;;;;;;2261133;56;21422;-74
2023/05/20 04:08:47;;;;;;;4.47;2.12;;;16.90;53.30;;;;;;2260921;56;21084;-74
2023/05/20 04:11:13;;;;;;;3.40;1.70;;;17.00;53.30;;;;;;2489251;55;22186;-70
2023/05/20 04:13:40;;;;;;;4.28;1.73;;;16.90;53.20;;;;;;2261830;56;20957;-70
2023/05/20 04:16:06;;;;;;;3.08;1.60;;;16.90;53.20;;;;;;2489565;55;20960;-77
2023/05/20 04:18:37;;;;;;;3.50;1.77;;;16.90;53.30;;;;;;2489895;55;20924;-71
2023/05/20 04:21:04;;;;;;;2.85;1.50;;;16.90;53.40;;;;;;2261089;56;20961;-71
2023/05/20 04:23:30;;;;;;;5.05;1.80;;;17.00;53.40;;;;;;2479811;55;21507;-70
2023/05/20 04:26:01;;;;;;;3.03;1.50;;;17.00;53.40;;;;;;2247193;56;20976;-72
2023/05/20 04:28:30;;;;;;;2.72;1.45;;;16.90;53.30;;;;;;2262041;56;20963;-71
2023/05/20 04:31:03;;;;;;;4.22;1.45;;;16.90;53.30;;;;;;2487994;55;21864;-72
2023/05/20 04:33:31;;;;;;;4.50;1.50;;;16.90;53.40;;;;;;2262051;56;21016;-68
2023/05/20 04:35:58;;;;;;;3.25;1.37;;;16.90;53.40;;;;;;2490639;55;21434;-68
2023/05/20 04:38:28;;;;;;;3.50;1.58;;;16.90;53.40;;;;;;2261521;56;20944;-68
2023/05/20 04:40:58;;;;;;;3.00;1.50;;;16.90;53.50;;;;;;2261756;56;20999;-72
2023/05/20 04:43:28;;;;;;;3.35;1.48;;;16.90;53.70;;;;;;2488651;55;21825;-70
2023/05/20 04:45:55;;;;;;;3.47;1.40;;;16.90;53.60;;;;;;2261058;56;20961;-70
2023/05/20 04:48:22;;;;;;;2.53;1.33;;;16.90;53.70;;;;;;2255163;56;20973;-71
2023/05/20 04:50:48;;;;;;;4.43;1.60;;;16.90;53.70;;;;;;2261761;56;20940;-71
2023/05/20 04:53:16;;;;;;;3.62;1.40;;;16.90;53.70;;;;;;2490369;55;22414;-70
2023/05/20 04:55:46;;;;;;;3.05;1.37;;;16.90;53.70;;;;;;2261718;56;20956;-71
2023/05/20 04:58:16;;;;;;;4.32;1.75;;;16.90;53.70;;;;;;2490216;55;21044;-70
2023/05/20 05:00:43;;;;;;;3.47;1.50;;;16.90;53.70;;;;;;2251310;56;21003;-76
2023/05/20 05:03:11;;;;;;;3.00;1.60;;;16.90;53.80;;;;;;2492649;55;21469;-71
2023/05/20 05:05:41;;;;;;;3.62;1.70;;;16.90;53.90;;;;;;2261426;56;21004;-72
2023/05/20 05:08:07;;;;;;;3.85;1.60;;;17.00;53.90;;;;;;2260179;56;21783;-72
2023/05/20 05:10:34;;;;;;;4.72;1.55;;;17.00;53.90;;;;;;2260561;56;21012;-71
2023/05/20 05:13:00;;;;;;;3.28;1.35;;;17.00;53.90;;;;;;2261030;56;20973;-75
2023/05/20 05:15:27;;;;;;;2.80;1.30;;;17.00;53.90;;;;;;2260839;56;20932;-70
2023/05/20 05:17:53;;;;;;;3.67;1.45;;;17.00;53.90;;;;;;2260951;56;21445;-71
2023/05/20 05:20:20;;;;;;;3.50;1.33;;;17.00;53.90;;;;;;2479978;55;21016;-72
2023/05/20 05:22:49;;;;;;;4.28;1.25;;;17.10;54.00;;;;;;2243280;56;21513;-73
2023/05/20 05:25:18;;;;;;;2.67;1.02;;;17.10;54.00;;;;;;2261541;56;21915;-70
2023/05/20 05:27:48;;;;;;;2.50;1.20;;;17.10;53.90;;;;;;2490150;55;20992;-71
2023/05/20 05:30:20;;;;;;;3.35;1.35;;;17.10;53.90;;;;;;2490137;55;20985;-70
2023/05/20 05:32:47;;;;;;;2.55;1.05;;;17.10;54.00;;;;;;2260963;56;21919;-70
2023/05/20 05:35:13;;;;;;;4.00;1.42;;;17.10;53.90;;;;;;2261579;56;21016;-71
2023/05/20 05:37:40;;;;;;;2.95;1.58;;;17.20;54.00;;;;;;2490265;55;20984;-73
2023/05/20 05:40:07;;;;;;;3.85;1.52;;;17.20;54.00;;;;;;2490217;55;20996;-73
2023/05/20 05:42:34;;;;;;;3.10;1.45;;;17.20;54.00;;;;;;2490047;55;21821;-72
2023/05/20 05:45:00;;;;;;;3.30;1.45;;;17.20;54.00;;;;;;2488737;55;21397;-71
2023/05/20 05:47:31;;;;;;;3.95;1.80;;;17.20;54.00;;;;;;2261351;56;20965;-71
2023/05/20 05:49:58;;;;;;;3.60;1.85;;;17.20;54.10;;;;;;2261964;56;21553;-71
2023/05/20 05:52:25;;;;;;;3.35;1.45;;;17.30;54.20;;;;;;2490502;55;20947;-73
2023/05/20 05:54:52;;;;;;;3.72;1.83;;;17.30;54.20;;;;;;2261131;56;20916;-71
2023/05/20 05:57:19;;;;;;;5.18;1.50;;;17.30;54.20;;;;;;2260752;56;21099;-71
2023/05/20 05:59:45;;;;;;;3.20;1.58;;;17.40;54.20;;;;;;2489488;55;21036;-74
2023/05/20 06:02:13;;;;;;;3.08;1.60;;;17.40;54.20;;;;;;2260694;56;20952;-71
2023/05/20 06:04:40;;;;;;;3.10;1.62;;;17.40;54.10;;;;;;2259360;56;21034;-71
2023/05/20 06:07:06;;;;;;;3.10;1.58;;;17.40;54.20;;;;;;2261531;56;21001;-72
2023/05/20 06:09:35;;;;;;;3.25;1.83;;;17.50;54.30;;;;;;2488648;55;21001;-69
2023/05/20 06:12:02;;;;;;;3.15;1.58;;;17.50;54.40;;;;;;2489494;55;21898;-72
2023/05/20 06:14:29;;;;;;;3.28;1.58;;;17.50;54.50;;;;;;2489780;55;20996;-73
2023/05/20 06:16:56;;;;;;;3.35;1.62;;;17.60;54.60;;;;;;2261040;56;21410;-71
2023/05/20 06:19:23;;;;;;;3.20;1.58;;;17.60;54.60;;;;;;2489143;55;20928;-75
2023/05/20 06:21:50;;;;;;;4.50;1.55;;;17.70;54.70;;;;;;2260952;56;21338;-75
2023/05/20 06:24:17;;;;;;;4.28;1.70;;;17.70;54.70;;;;;;2489446;55;21026;-71
2023/05/20 06:26:44;;;;;;;3.67;1.75;;;17.80;54.70;;;;;;2488919;55;21024;-71
2023/05/20 06:29:11;;;;;;;3.05;1.52;;;17.80;54.70;;;;;;2260813;56;21765;-72
2023/05/20 06:31:38;;;;;;;3.30;1.50;;;17.90;54.70;;;;;;2488527;55;21800;-74
2023/05/20 06:34:05;;;;;;;4.93;1.80;;;17.90;54.80;;;;;;2489849;55;20925;-71
2023/05/20 06:36:31;;;;;;;3.42;1.60;;;18.00;54.90;;;;;;2260555;56;20941;-71
2023/05/20 06:38:59;;;;;;;3.78;1.77;;;18.00;55.00;;;;;;2260321;56;20952;-71
2023/05/20 06:41:26;;;;;;;3.05;1.52;;;18.10;55.00;;;;;;2260682;56;20948;-74
2023/05/20 06:43:52;;;;;;;3.40;1.60;;;18.10;54.90;;;;;;2488368;55;21002;-73
2023/05/20 06:46:19;;;;;;;3.37;1.70;;;18.20;55.00;;;;;;2247251;56;20963;-73
2023/05/20 06:48:45;;;;;;;3.15;1.67;;;18.30;55.00;;;;;;2478375;55;20965;-72
2023/05/20 06:51:12;;;;;;;3.37;1.70;;;18.40;55.00;;;;;;2489147;55;21330;-70
2023/05/20 06:53:39;;;;;;;2.67;1.40;;;18.40;54.80;;;;;;2489413;55;21012;-72
2023/05/20 06:56:05;;;;;;;3.35;1.67;;;18.50;54.90;;;;;;2489501;55;21016;-71
2023/05/20 06:58:32;;;;;;;3.20;1.73;;;18.50;54.80;;;;;;2488517;55;21457;-73
2023/05/20 07:00:58;;;;;;;3.60;1.80;;;18.60;54.80;;;;;;2259809;55;21582;-73
2023/05/20 07:03:26;;;;;;;6.55;1.85;;;18.60;54.60;;;;;;2489035;55;20932;-74
2023/05/20 07:05:53;;;;;;;3.03;1.40;;;18.70;54.70;;;;;;2262176;56;21001;-75
2023/05/20 07:08:20;;;;;;;4.43;1.80;;;18.70;54.70;;;;;;2462846;55;21023;-70
2023/05/20 07:10:46;;;;;;;2.60;1.40;;;18.80;54.70;;;;;;2260411;56;21107;-73
2023/05/20 07:13:15;;;;;;;3.35;1.60;;;18.80;54.70;;;;;;2488585;55;21027;-70
2023/05/20 07:15:44;;;;;;;3.20;1.55;;;18.90;54.80;;;;;;2260699;56;20960;-69
2023/05/20 07:18:11;;;;;;;3.50;1.65;;;18.90;54.70;;;;;;2260930;56;20944;-72
2023/05/20 07:20:38;;;;;;;4.30;1.98;;;19.00;54.70;;;;;;2260845;56;20979;-68
2023/05/20 07:23:05;;;;;;;3.25;1.77;;;19.00;54.60;;;;;;2489452;55;20932;-68
2023/05/20 07:25:37;;;;;;;5.50;1.90;;;19.10;54.70;;;;;;2488597;55;21477;-71
2023/05/20 07:28:04;;;;;;;3.33;1.62;;;19.10;54.60;;;;;;2260601;56;20964;-72
2023/05/20 07:30:32;;;;;;;4.03;2.15;;;19.10;54.60;;;;;;2489196;55;21536;-73
2023/05/20 07:32:58;;;;;;;3.75;1.70;;;19.20;54.70;;;;;;2261026;56;21044;-73
2023/05/20 07:35:24;;;;;;;3.60;1.73;;;19.20;54.60;;;;;;2489206;55;20898;-69
2023/05/20 07:37:51;;;;;;;3.85;2.10;;;19.30;54.60;;;;;;2261454;56;20936;-69
2023/05/20 07:40:17;;;;;;;4.75;1.92;;;19.40;54.60;;;;;;2260723;56;21040;-69
2023/05/20 07:42:44;;;;;;;3.40;1.90;;;19.40;54.50;;;;;;2261156;56;20952;-70
2023/05/20 07:45:10;;;;;;;4.18;1.90;;;19.50;54.50;;;;;;2490088;55;20955;-70
2023/05/20 07:47:37;;;;;;;3.97;1.85;;;19.50;54.50;;;;;;2484608;55;20965;-69
2023/05/20 07:50:04;;;;;;;3.78;1.52;;;19.60;55.20;;;;;;2261399;56;21942;-71
2023/05/20 07:52:30;;;;;;;3.33;1.92;;;19.60;54.60;;;;;;2261601;56;20948;-70
2023/05/20 07:54:57;;;;;;;3.25;1.70;;;19.70;54.60;;;;;;2490060;55;20952;-69
2023/05/20 07:57:24;;;;;;;3.22;1.92;;;19.80;54.70;;;;;;2489881;55;20967;-69
2023/05/20 07:59:53;;;;;;;3.90;1.98;;;19.80;54.70;;;;;;2490089;55;21044;-69
2023/05/20 08:02:24;;;;;;;3.65;1.83;;;19.90;54.70;;;;;;2489138;55;20976;-71
2023/05/20 08:04:50;;;;;;;3.45;1.83;;;19.90;54.60;;;;;;2490413;55;21470;-69
2023/05/20 08:07:20;;;;;;;3.17;1.70;;;20.00;54.60;;;;;;2260645;56;21564;-70
2023/05/20 08:09:46;;;;;;;3.83;2.08;;;20.10;54.60;;;;;;2490140;55;20951;-69
2023/05/20 08:12:13;;;;;;;3.33;1.80;;;20.10;54.50;;;;;;2489479;55;20997;-68
2023/05/20 08:14:39;;;;;;;4.22;2.10;;;20.20;54.40;;;;;;2261759;56;21438;-69
2023/05/20 08:17:05;;;;;;;4.00;2.00;;;20.20;54.20;;;;;;2261990;56;21016;-72
2023/05/20 08:19:32;;;;;;;3.70;2.00;;;20.30;54.30;;;;;;2261583;56;21419;-71
2023/05/20 08:21:58;;;;;;;3.97;2.00;;;20.30;54.20;;;;;;2262010;56;21481;-75
2023/05/20 08:24:25;;;;;;;3.25;1.80;;;20.40;54.20;;;;;;2490393;55;20977;-69
2023/05/20 08:26:51;;;;;;;5.07;2.10;;;20.40;54.20;;;;;;2489102;55;20955;-70
2023/05/20 08:29:18;;;;;;;3.40;1.98;;;20.40;54.30;;;;;;2490354;55;20929;-73
2023/05/20 08:31:44;;;;;;;5.07;1.60;;;20.50;54.50;;;;;;2261685;56;20952;-73
2023/05/20 08:34:10;;;;;;;4.57;2.28;;;20.50;54.60;;;;;;2261986;56;20940;-69
2023/05/20 08:36:39;;;;;;;3.53;1.70;;;20.60;54.80;;;;;;2490196;55;20996;-69
2023/05/20 08:39:06;;;;;;;4.00;1.92;;;20.70;54.80;;;;;;2486658;55;21034;-69
2023/05/20 08:41:32;;;;;;;3.80;2.10;;;20.70;54.60;;;;;;2488824;55;20933;-70
2023/05/20 08:43:59;;;;;;;3.45;2.10;;;20.80;54.60;;;;;;2261318;56;20989;-69
2023/05/20 08:46:25;;;;;;;4.45;2.37;;;20.90;54.50;;;;;;2489653;55;20933;-73
2023/05/20 08:48:52;;;;;;;3.35;1.98;;;20.90;54.50;;;;;;2488820;55;21355;-70
2023/05/20 08:51:20;;;;;;;4.22;2.10;;;21.00;54.50;;;;;;2260001;56;20945;-71
2023/05/20 08:53:47;;;;;;;3.70;2.03;;;21.10;54.50;;;;;;2260254;56;21020;-71
2023/05/20 08:56:13;;;;;;;5.30;2.65;;;21.20;54.60;;;;;;2261340;56;21032;-69
2023/05/20 08:58:41;;;;;;;3.65;2.12;;;21.20;54.50;;;;;;2260066;56;21362;-69
2023/05/20 09:01:08;;;;;;;3.42;1.87;;;21.30;54.40;;;;;;2263621;56;20968;-69
2023/05/20 09:03:34;;;;;;;3.20;1.65;;;21.40;54.30;;;;;;2261242;56;20932;-69
2023/05/20 09:06:07;;;;;;;4.22;2.00;;;21.40;54.20;;;;;;2260714;56;20960;-75
2023/05/20 09:08:34;;;;;;;3.53;1.98;;;21.50;54.20;;;;;;2261146;56;20972;-69
2023/05/20 09:11:00;;;;;;;3.47;1.85;;;21.50;54.10;;;;;;2489393;55;20924;-70
2023/05/20 09:13:30;;;;;;;3.78;2.00;;;21.60;54.00;;;;;;2488383;55;20995;-70
2023/05/20 09:15:58;;;;;;;4.07;2.10;;;21.70;54.00;;;;;;2488638;55;21024;-70
2023/05/20 09:18:25;;;;;;;3.42;1.80;;;21.70;53.90;;;;;;2489292;55;20953;-70
2023/05/20 09:20:52;;;;;;;3.85;2.10;;;21.80;53.90;;;;;;2484102;55;21015;-70
2023/05/20 09:23:21;;;;;;;2.92;1.62;;;21.80;53.60;;;;;;2260103;56;21421;-70
2023/05/20 09:25:49;;;;;;;2.92;1.73;;;21.90;53.60;;;;;;2488412;55;21993;-69
2023/05/20 09:28:16;;;;;;;3.62;1.87;;;21.90;53.60;;;;;;2485829;55;20970;-73
2023/05/20 09:30:42;;;;;;;4.65;2.33;;;22.00;53.70;;;;;;2259884;56;20964;-71
2023/05/20 09:33:11;;;;;;;3.83;2.28;;;22.00;53.40;;;;;;2489985;55;21012;-69
2023/05/20 09:35:38;;;;;;;3.03;1.55;;;22.00;53.40;;;;;;2489586;55;21007;-69
2023/05/20 09:38:06;;;;;;;4.15;2.60;;;22.10;53.40;;;;;;2260555;56;21019;-69
2023/05/20 09:40:33;;;;;;;3.90;2.00;;;22.10;53.30;;;;;;2260975;56;21583;-69
2023/05/20 09:43:03;;;;;;;3.85;2.15;;;22.00;53.10;;;;;;2260192;56;20972;-69
2023/05/20 09:45:32;;;;;;;3.60;2.08;;;22.20;53.20;;;;;;2487149;55;21148;-73
2023/05/20 09:47:59;;;;;;;4.20;2.20;;;22.20;53.20;;;;;;2486882;55;20932;-71
2023/05/20 09:50:25;;;;;;;3.75;2.22;;;22.20;53.20;;;;;;2488607;55;20952;-71
2023/05/20 09:52:52;;;;;;;4.70;2.47;;;22.20;53.00;;;;;;2260320;56;20933;-70
2023/05/20 09:55:20;;;;;;;4.00;2.30;;;22.20;52.80;;;;;;2489762;55;20936;-71
2023/05/20 09:57:47;;;;;;;4.43;2.67;;;22.30;52.90;;;;;;2485620;55;21623;-69
2023/05/20 10:00:16;;;;;;;3.78;2.40;;;22.30;52.90;;;;;;2258591;56;21452;-69
2023/05/20 10:02:44;;;;;;;4.97;2.50;;;22.40;52.90;;;;;;2261419;56;21008;-71
2023/05/20 10:05:23;;;;;;;3.97;2.15;;;22.40;53.20;;;;;;2490458;55;20960;-70
2023/05/20 10:10:37;;;;;;;4.70;2.40;;;22.40;53.10;;;;;;2259840;56;21067;-71
2023/05/20 10:13:43;;;;;;;4.03;2.08;;;22.50;52.80;;;;;;2486060;55;22033;-69
2023/05/20 10:18:53;;;;;;;3.33;1.70;;;22.60;53.00;;;;;;2489846;55;20948;-68
2023/05/20 10:21:24;;;;;;;3.50;1.85;;;22.70;53.20;;;;;;2261441;56;20968;-73
2023/05/20 10:23:50;;;;;;;4.30;1.92;;;22.70;53.20;;;;;;2260869;56;21422;-69
2023/05/20 10:26:17;;;;;;;3.80;2.15;;;22.80;53.30;;;;;;2260071;56;21941;-69
2023/05/20 10:28:43;;;;;;;4.85;2.83;;;22.80;53.10;;;;;;2261453;56;20928;-69
2023/05/20 10:31:17;;;;;;;4.43;2.40;;;22.90;53.20;;;;;;2481707;55;21030;-69
2023/05/20 10:33:44;;;;;;;5.47;2.30;;;23.00;53.20;;;;;;2245625;56;20948;-70
2023/05/20 10:36:21;;;;;;;3.20;1.80;;;23.10;53.10;;;;;;2260317;56;21040;-72
2023/05/20 10:38:54;;;;;;;3.45;1.70;;;23.10;52.90;;;;;;2471755;55;21036;-71
2023/05/20 10:41:22;;;;;;;4.10;2.22;;;23.20;52.90;;;;;;2478840;55;21726;-69
2023/05/20 10:43:59;;;;;;;3.25;2.10;;;23.20;52.90;;;;;;2260726;56;20961;-70
2023/05/20 10:46:26;;;;;;;3.95;2.15;;;23.30;52.70;;;;;;2260017;56;21516;-69
2023/05/20 10:49:00;;;;;;;3.53;1.80;;;23.40;52.90;;;;;;2260363;56;20940;-71
2023/05/20 10:51:28;;;;;;;4.65;2.53;;;23.40;53.00;;;;;;2489350;55;20965;-70
2023/05/20 10:53:54;;;;;;;3.45;2.12;;;23.50;53.20;;;;;;2488711;55;21017;-69
2023/05/20 10:56:22;;;;;;;3.75;2.17;;;23.60;53.30;;;;;;2260476;56;21100;-72
2023/05/20 10:58:49;;;;;;;3.53;2.12;;;23.60;53.00;;;;;;2488709;55;20949;-70
2023/05/20 11:01:15;;;;;;;3.75;2.45;;;23.70;52.90;;;;;;2489662;55;21734;-70
2023/05/20 11:03:43;;;;;;;3.42;2.03;;;23.80;52.80;;;;;;2261461;56;21030;-73
2023/05/20 11:06:16;;;;;;;6.47;2.50;;;23.80;52.50;;;;;;2489419;55;21474;-71
2023/05/20 11:08:44;;;;;;;4.47;2.08;;;23.90;52.60;;;;;;2261423;56;21403;-68
2023/05/20 11:11:11;;;;;;;3.67;2.03;;;23.90;52.40;;;;;;2488705;55;20937;-71
2023/05/20 11:13:37;;;;;;;3.33;2.12;;;24.00;52.50;;;;;;2259950;56;21521;-71
2023/05/20 11:16:04;;;;;;;3.22;1.90;;;24.00;52.50;;;;;;2489643;55;20924;-72
2023/05/20 11:18:31;;;;;;;3.75;2.42;;;24.10;52.50;;;;;;2261165;56;21000;-71
2023/05/20 11:20:57;;;;;;;5.65;2.17;;;24.10;52.40;;;;;;2489147;55;20960;-70
2023/05/20 11:23:25;;;;;;;4.82;2.17;;;24.20;52.40;;;;;;2489441;55;20953;-70
2023/05/20 11:25:52;;;;;;;4.75;2.03;;;24.20;52.40;;;;;;2260737;56;20964;-69
2023/05/20 11:28:22;;;;;;;3.15;1.85;;;24.30;52.40;;;;;;2489758;55;20968;-71
2023/05/20 11:30:49;;;;;;;4.15;2.10;;;24.30;52.40;;;;;;2261210;56;21030;-69
2023/05/20 11:33:16;;;;;;;4.00;2.12;;;24.40;52.50;;;;;;2487773;55;21026;-70
2023/05/20 11:35:47;;;;;;;3.47;1.92;;;24.40;52.50;;;;;;2486395;55;20936;-69
2023/05/20 11:38:14;;;;;;;3.33;1.92;;;24.60;52.70;;;;;;2489995;55;20991;-70
2023/05/20 11:40:53;;;;;;;3.70;2.15;;;24.60;52.50;;;;;;2260304;56;20994;-71
2023/05/20 11:43:20;;;;;;;5.80;2.20;;;24.70;51.80;;;;;;2480232;55;20963;-71
2023/05/20 11:45:58;;;;;;;3.80;2.20;;;24.80;52.00;;;;;;2476763;55;20966;-73
2023/05/20 11:48:24;;;;;;;3.08;1.70;;;24.90;51.40;;;;;;2241255;56;20947;-69
2023/05/20 11:50:54;;;;;;;5.28;1.62;;;24.90;51.70;;;;;;2260817;56;20936;-70
2023/05/20 11:53:21;;;;;;;3.53;1.83;;;25.00;51.80;;;;;;2260588;56;20957;-71
2023/05/20 11:55:54;;;;;;;3.00;1.90;;;25.00;51.60;;;;;;2260341;56;20916;-70
2023/05/20 11:58:21;;;;;;;3.05;1.83;;;25.10;51.50;;;;;;2259653;56;20952;-70
2023/05/20 12:00:49;;;;;;;22.02;3.42;;;25.10;51.20;;;;;;2260197;56;20952;-70
2023/05/20 12:03:17;;;;;;;15.52;2.87;;;25.20;51.00;;;;;;2260345;56;20944;-68
2023/05/20 12:05:43;;;;;;;5.05;2.08;;;25.20;50.90;;;;;;2261279;56;21469;-67
2023/05/20 12:08:11;;;;;;;3.87;1.92;;;25.20;51.00;;;;;;2260788;56;20965;-69
2023/05/20 12:10:37;;;;;;;3.60;1.90;;;25.30;50.90;;;;;;2484620;55;20924;-69
2023/05/20 12:13:07;;;;;;;3.50;1.80;;;25.30;51.00;;;;;;2484159;55;20977;-70
2023/05/20 12:15:35;;;;;;;3.72;2.15;;;25.40;51.20;;;;;;2490006;55;21525;-69
2023/05/20 12:18:01;;;;;;;3.22;1.83;;;25.50;51.30;;;;;;2261029;56;20940;-69
2023/05/20 12:20:29;;;;;;;3.00;1.70;;;25.50;51.00;;;;;;2261341;56;21472;-69
2023/05/20 12:22:57;;;;;;;3.78;2.08;;;25.50;50.70;;;;;;2260843;55;21026;-68
2023/05/20 12:25:23;;;;;;;3.90;2.12;;;25.60;50.60;;;;;;2462298;55;21039;-69
2023/05/20 12:27:51;;;;;;;3.92;2.20;;;25.60;50.40;;;;;;2489525;55;21472;-69
2023/05/20 12:30:19;;;;;;;3.62;2.00;;;25.60;50.90;;;;;;2261399;56;21024;-70
2023/05/20 12:32:45;;;;;;;3.85;2.58;;;25.70;50.30;;;;;;2263218;56;20944;-69
2023/05/20 12:35:12;;;;;;;3.25;1.90;;;25.70;50.40;;;;;;2490036;55;20941;-70
2023/05/20 12:37:39;;;;;;;3.67;2.05;;;25.80;50.50;;;;;;2261785;56;21037;-71
2023/05/20 12:40:07;;;;;;;3.72;2.25;;;25.80;50.20;;;;;;2261943;56;20930;-71
2023/05/20 12:42:34;;;;;;;4.43;2.45;;;25.90;50.10;;;;;;2487413;55;20964;-70
2023/05/20 12:45:01;;;;;;;4.12;2.35;;;25.90;49.70;;;;;;2489720;55;20993;-72
2023/05/20 12:47:27;;;;;;;3.97;1.83;;;26.00;49.70;;;;;;2489956;55;20933;-69
2023/05/20 12:49:54;;;;;;;2.97;1.75;;;26.00;49.70;;;;;;2489778;55;20997;-72
2023/05/20 12:52:21;;;;;;;3.40;1.80;;;26.00;49.60;;;;;;2261455;56;21000;-69
2023/05/20 12:54:47;;;;;;;5.37;1.90;;;26.10;49.60;;;;;;2261656;56;20925;-68